Time;durP1;ratioP1;P1;durP2;ratioP2;P2;SDS_P1;SDS_P2;PMS_P1;PMS_P2;Temp;Humidity;BMP_temperature;BMP_pressure;BME280_temperature;BME280_humidity;BME280_pressure;Samples;Min_cycle;Max_cycle;Signal;HPM_P1;HPM_P2
2021/05/08 00:00:45;;;;;;;20.58;14.18;;;7.10;99.90;;;;;;4942857;28;20027;-74
2021/05/08 00:03:10;;;;;;;21.92;14.48;;;7.00;99.90;;;;;;4945990;28;20104;-76
2021/05/08 00:05:36;;;;;;;21.00;14.70;;;7.00;99.90;;;;;;4927367;28;20424;-76
2021/05/08 00:08:02;;;;;;;25.20;15.85;;;6.90;99.90;;;;;;4925809;28;20091;-75
2021/05/08 00:10:28;;;;;;;23.90;16.17;;;6.80;99.90;;;;;;4925094;28;20024;-73
2021/05/08 00:12:57;;;;;;;24.20;15.77;;;6.80;99.90;;;;;;4932335;28;20166;-77
2021/05/08 00:15:25;;;;;;;25.88;16.17;;;6.80;99.90;;;;;;4950113;28;20051;-75
2021/05/08 00:17:51;;;;;;;27.60;17.02;;;6.70;99.90;;;;;;4943445;28;20037;-74
2021/05/08 00:20:18;;;;;;;24.23;16.10;;;6.70;99.90;;;;;;4934388;28;20028;-75
2021/05/08 00:22:44;;;;;;;24.13;16.80;;;6.80;99.90;;;;;;4950305;28;20023;-72
2021/05/08 00:25:16;;;;;;;29.48;16.60;;;6.80;99.90;;;;;;4975985;28;20020;-75
2021/05/08 00:27:41;;;;;;;26.43;17.57;;;6.80;99.90;;;;;;4935338;28;20031;-76
2021/05/08 00:30:08;;;;;;;28.85;17.45;;;6.70;99.90;;;;;;4934526;28;20021;-73
2021/05/08 00:32:34;;;;;;;27.98;17.17;;;6.80;99.90;;;;;;4956870;28;20617;-75
2021/05/08 00:35:03;;;;;;;28.23;16.80;;;6.90;99.90;;;;;;4930246;28;20023;-76
2021/05/08 00:37:28;;;;;;;23.85;17.13;;;6.80;99.90;;;;;;4929227;28;20012;-76
2021/05/08 00:39:55;;;;;;;25.85;16.90;;;6.70;99.90;;;;;;4930679;28;20031;-74
2021/05/08 00:42:21;;;;;;;27.10;16.02;;;6.60;99.90;;;;;;4937857;28;20020;-76
2021/05/08 00:44:47;;;;;;;22.88;15.80;;;6.70;99.90;;;;;;5002024;28;20599;-75
2021/05/08 00:47:14;;;;;;;24.08;16.17;;;6.80;99.90;;;;;;4935351;28;20093;-74
2021/05/08 00:49:41;;;;;;;21.98;15.38;;;6.70;99.90;;;;;;4979450;28;20361;-75
2021/05/08 00:52:07;;;;;;;25.25;15.52;;;6.70;99.90;;;;;;4934754;28;20543;-76
2021/05/08 00:54:33;;;;;;;27.88;17.40;;;6.70;99.90;;;;;;4916061;28;20032;-75
2021/05/08 00:56:59;;;;;;;25.10;17.05;;;6.60;99.90;;;;;;4928107;28;20182;-75
2021/05/08 00:59:25;;;;;;;23.95;15.95;;;6.60;99.90;;;;;;4926890;28;20342;-76
2021/05/08 01:01:50;;;;;;;23.35;16.42;;;6.60;99.90;;;;;;4937218;28;20022;-76
2021/05/08 01:04:16;;;;;;;27.70;16.70;;;6.60;99.90;;;;;;4925244;28;20020;-75
2021/05/08 01:06:42;;;;;;;24.42;17.20;;;6.70;99.90;;;;;;4971019;28;20040;-75
2021/05/08 01:09:08;;;;;;;23.70;16.17;;;6.70;99.90;;;;;;4968530;28;20039;-75
2021/05/08 01:11:42;;;;;;;24.23;15.88;;;6.70;99.90;;;;;;4950196;28;20027;-75
2021/05/08 01:14:08;;;;;;;25.35;16.02;;;6.80;99.90;;;;;;4943894;28;20031;-76
2021/05/08 01:16:35;;;;;;;23.98;15.90;;;6.80;99.90;;;;;;4964900;28;20065;-74
2021/05/08 01:19:02;;;;;;;26.05;17.23;;;6.90;99.90;;;;;;4943143;28;20030;-74
2021/05/08 01:21:30;;;;;;;24.38;15.80;;;6.90;99.90;;;;;;4937640;28;20054;-74
2021/05/08 01:23:56;;;;;;;20.58;14.85;;;6.90;99.90;;;;;;4943570;28;20626;-73
2021/05/08 01:26:22;;;;;;;22.70;15.65;;;6.90;99.90;;;;;;4952959;28;20047;-74
2021/05/08 01:28:48;;;;;;;23.85;16.35;;;6.80;99.90;;;;;;4916978;28;20035;-75
2021/05/08 01:31:15;;;;;;;19.67;14.38;;;6.80;99.90;;;;;;4934082;28;20031;-76
2021/05/08 01:33:43;;;;;;;23.13;15.10;;;6.90;99.90;;;;;;4966518;28;20542;-75
2021/05/08 01:36:09;;;;;;;23.52;15.65;;;7.00;99.90;;;;;;4928732;28;20379;-75
2021/05/08 01:38:36;;;;;;;19.25;13.48;;;7.00;99.90;;;;;;4930260;28;20770;-75
2021/05/08 01:41:07;;;;;;;17.17;13.38;;;7.00;99.90;;;;;;4936413;28;20040;-76
2021/05/08 01:43:33;;;;;;;21.73;13.55;;;7.00;99.90;;;;;;4942070;28;20035;-76
2021/05/08 01:46:00;;;;;;;20.85;13.60;;;6.90;99.90;;;;;;4932080;28;20028;-76
2021/05/08 01:48:29;;;;;;;16.80;12.18;;;6.90;99.90;;;;;;4931512;28;20287;-76
2021/05/08 01:50:56;;;;;;;20.70;13.35;;;7.00;99.90;;;;;;4931057;28;20066;-74
2021/05/08 01:53:22;;;;;;;19.05;12.00;;;7.00;99.90;;;;;;4934659;28;20032;-74
2021/05/08 01:55:49;;;;;;;17.38;11.77;;;7.10;99.90;;;;;;4938668;28;20275;-75
2021/05/08 01:58:15;;;;;;;17.90;11.50;;;7.10;99.90;;;;;;4940845;28;20024;-75
2021/05/08 02:00:44;;;;;;;14.40;10.55;;;7.10;99.90;;;;;;4942789;28;20050;-74
2021/05/08 02:03:15;;;;;;;16.45;10.52;;;7.10;99.90;;;;;;4944502;28;20042;-76
2021/05/08 02:05:42;;;;;;;16.77;9.80;;;7.10;99.90;;;;;;4944425;28;20078;-76
2021/05/08 02:08:09;;;;;;;18.75;9.57;;;7.00;99.90;;;;;;4942958;28;20036;-76
2021/05/08 02:10:37;;;;;;;12.90;9.82;;;6.90;99.90;;;;;;4943556;28;20091;-74
2021/05/08 02:13:04;;;;;;;13.63;9.38;;;6.90;99.90;;;;;;4942025;28;20076;-75
2021/05/08 02:15:30;;;;;;;14.30;8.98;;;6.90;99.90;;;;;;4942144;28;20104;-76
2021/05/08 02:17:56;;;;;;;13.68;9.45;;;7.00;99.90;;;;;;4937460;28;20036;-75
2021/05/08 02:20:31;;;;;;;10.95;8.18;;;6.90;99.90;;;;;;4931506;28;20026;-76
2021/05/08 02:23:02;;;;;;;12.00;8.35;;;6.90;99.90;;;;;;4932373;28;20039;-74
2021/05/08 02:25:28;;;;;;;10.82;7.90;;;6.90;99.90;;;;;;4945848;28;20104;-75
2021/05/08 02:27:54;;;;;;;14.52;7.15;;;6.90;99.90;;;;;;4939903;28;20016;-75
2021/05/08 02:30:25;;;;;;;10.55;7.60;;;6.90;99.90;;;;;;4939416;28;20086;-76
2021/05/08 02:32:51;;;;;;;12.35;6.97;;;6.90;99.90;;;;;;4935184;28;20020;-74
2021/05/08 02:35:18;;;;;;;9.43;6.80;;;6.90;99.90;;;;;;4938972;28;20038;-77
2021/05/08 02:37:45;;;;;;;13.40;7.18;;;6.90;99.90;;;;;;4933377;28;20134;-73
2021/05/08 02:40:16;;;;;;;10.93;6.97;;;7.00;99.90;;;;;;4944580;28;20031;-76
2021/05/08 02:42:42;;;;;;;16.10;7.47;;;7.00;99.90;;;;;;4989879;28;20024;-74
2021/05/08 02:45:10;;;;;;;12.65;6.82;;;7.00;99.90;;;;;;4971007;28;20095;-76
2021/05/08 02:47:44;;;;;;;10.70;7.32;;;6.90;99.90;;;;;;4954663;28;20047;-75
2021/05/08 02:50:18;;;;;;;14.65;6.82;;;7.00;99.90;;;;;;4952022;28;20024;-77
2021/05/08 02:52:45;;;;;;;10.23;6.55;;;6.80;99.90;;;;;;4952093;28;20016;-76
2021/05/08 02:55:23;;;;;;;8.50;6.50;;;6.80;99.90;;;;;;4954422;28;20054;-76
2021/05/08 02:57:49;;;;;;;9.32;6.93;;;6.90;99.90;;;;;;4937208;28;20035;-74
2021/05/08 03:00:17;;;;;;;8.85;6.32;;;6.90;99.90;;;;;;4936290;28;20103;-74
2021/05/08 03:02:43;;;;;;;16.33;6.57;;;7.00;99.90;;;;;;4933862;28;20601;-74
2021/05/08 03:05:10;;;;;;;12.48;6.45;;;6.90;99.90;;;;;;4934045;28;20047;-74
2021/05/08 03:07:36;;;;;;;11.45;6.90;;;6.80;99.90;;;;;;4942586;28;20625;-77
2021/05/08 03:10:07;;;;;;;10.13;6.35;;;6.80;99.90;;;;;;4938132;28;20032;-76
2021/05/08 03:12:33;;;;;;;9.02;6.25;;;6.80;99.90;;;;;;4935436;28;20035;-76
2021/05/08 03:15:00;;;;;;;9.07;6.03;;;6.80;99.90;;;;;;4922915;28;20074;-77
2021/05/08 03:17:26;;;;;;;6.82;5.35;;;6.80;99.90;;;;;;4931236;28;20032;-75
2021/05/08 03:19:52;;;;;;;11.25;5.75;;;6.80;99.90;;;;;;4929261;28;20051;-75
2021/05/08 03:22:17;;;;;;;11.18;6.80;;;6.80;99.90;;;;;;4941815;28;20733;-78
2021/05/08 03:24:43;;;;;;;8.00;5.75;;;6.80;99.90;;;;;;4979074;28;20026;-75
2021/05/08 03:27:09;;;;;;;8.73;5.78;;;6.70;99.90;;;;;;4933818;28;20035;-76
2021/05/08 03:29:34;;;;;;;16.85;6.22;;;6.80;99.90;;;;;;4930821;28;20076;-73
2021/05/08 03:32:00;;;;;;;9.02;5.75;;;6.80;99.90;;;;;;4928942;28;20075;-75
2021/05/08 03:34:26;;;;;;;10.02;5.38;;;6.80;99.90;;;;;;4930070;28;20063;-75
2021/05/08 03:36:52;;;;;;;8.55;5.68;;;6.70;99.90;;;;;;4933509;28;20043;-77
2021/05/08 03:39:18;;;;;;;9.65;5.50;;;6.80;99.90;;;;;;4930840;28;20097;-76
2021/05/08 03:41:44;;;;;;;9.27;5.38;;;6.80;99.90;;;;;;4936238;28;20439;-76
2021/05/08 03:44:09;;;;;;;10.55;5.72;;;6.80;99.90;;;;;;4955548;28;20031;-78
2021/05/08 03:46:36;;;;;;;9.95;5.55;;;6.80;99.90;;;;;;4935805;28;20042;-74
2021/05/08 03:49:02;;;;;;;9.25;5.93;;;6.90;99.90;;;;;;4936081;28;20646;-75
2021/05/08 03:51:28;;;;;;;11.80;5.53;;;6.90;99.90;;;;;;4955599;28;20031;-76
2021/05/08 03:53:55;;;;;;;11.38;5.88;;;7.00;99.90;;;;;;4931695;28;20043;-75
2021/05/08 03:56:21;;;;;;;9.30;5.05;;;7.10;99.90;;;;;;4935399;28;20511;-76
2021/05/08 03:58:47;;;;;;;9.95;5.45;;;7.10;99.90;;;;;;4932229;28;20032;-76
2021/05/08 04:01:14;;;;;;;7.15;4.97;;;7.10;99.90;;;;;;4944331;28;20039;-75
2021/05/08 04:03:41;;;;;;;8.63;5.05;;;7.10;99.90;;;;;;4935241;28;20080;-76
2021/05/08 04:06:07;;;;;;;8.02;4.13;;;7.20;99.90;;;;;;4926677;28;20025;-74
2021/05/08 04:08:34;;;;;;;8.68;4.70;;;7.20;99.90;;;;;;4934655;28;20028;-75
2021/05/08 04:10:59;;;;;;;8.02;4.45;;;7.20;99.90;;;;;;4929723;28;20039;-76
2021/05/08 04:13:25;;;;;;;7.85;4.70;;;7.30;99.90;;;;;;4931735;28;20083;-76
2021/05/08 04:15:51;;;;;;;7.55;4.70;;;7.40;99.90;;;;;;4933424;28;20035;-77
2021/05/08 04:18:17;;;;;;;11.30;5.60;;;7.40;99.90;;;;;;4934966;28;20447;-76
2021/05/08 04:20:47;;;;;;;9.05;5.10;;;7.50;99.90;;;;;;4933440;28;20020;-77
2021/05/08 04:23:13;;;;;;;8.13;5.85;;;7.50;99.90;;;;;;4931024;28;20048;-76
2021/05/08 04:25:39;;;;;;;10.55;7.00;;;7.40;99.90;;;;;;4956561;28;20084;-77
2021/05/08 04:28:08;;;;;;;8.13;6.05;;;7.40;99.90;;;;;;4932230;28;20055;-76
2021/05/08 04:30:33;;;;;;;10.18;6.68;;;7.50;99.90;;;;;;4932851;28;20050;-74
2021/05/08 04:32:59;;;;;;;9.25;6.65;;;7.50;99.90;;;;;;4934703;28;20040;-77
2021/05/08 04:35:25;;;;;;;11.68;6.53;;;7.60;99.90;;;;;;4926407;28;20062;-75
2021/05/08 04:37:50;;;;;;;10.65;7.47;;;7.70;99.90;;;;;;4925804;28;20027;-76
2021/05/08 04:40:16;;;;;;;14.60;6.70;;;7.70;99.90;;;;;;4923028;28;20020;-76
2021/05/08 04:42:41;;;;;;;12.25;7.45;;;7.80;99.90;;;;;;4920743;28;20028;-76
2021/05/08 04:45:07;;;;;;;11.48;7.45;;;7.90;99.90;;;;;;4927774;28;20114;-75
2021/05/08 04:47:34;;;;;;;16.55;7.60;;;7.90;99.90;;;;;;4924976;28;20035;-75
2021/05/08 04:50:01;;;;;;;11.30;7.35;;;7.80;99.90;;;;;;4926976;28;20058;-75
2021/05/08 04:52:27;;;;;;;10.15;7.47;;;7.80;99.90;;;;;;4928499;28;20112;-75
2021/05/08 04:54:53;;;;;;;11.13;7.25;;;7.90;99.90;;;;;;4924387;28;20035;-75
2021/05/08 04:57:25;;;;;;;11.57;8.32;;;7.80;99.90;;;;;;4936046;28;20511;-74
2021/05/08 04:59:50;;;;;;;16.40;8.00;;;7.80;99.90;;;;;;4934980;28;20710;-75
2021/05/08 05:02:18;;;;;;;13.95;7.85;;;7.80;99.90;;;;;;4927648;28;20282;-75
2021/05/08 05:04:43;;;;;;;17.20;8.15;;;7.70;99.90;;;;;;4921752;28;20054;-76
2021/05/08 05:07:09;;;;;;;14.02;8.02;;;7.70;99.90;;;;;;4925978;28;20020;-75
2021/05/08 05:09:35;;;;;;;13.70;8.10;;;7.70;99.90;;;;;;4933721;28;20034;-75
2021/05/08 05:12:00;;;;;;;16.65;8.30;;;7.70;99.90;;;;;;4933689;28;20087;-75
2021/05/08 05:14:27;;;;;;;10.13;7.63;;;7.70;99.90;;;;;;4924811;28;20034;-77
2021/05/08 05:16:53;;;;;;;13.85;8.30;;;7.70;99.90;;;;;;4930180;28;20031;-77
2021/05/08 05:19:18;;;;;;;11.43;7.97;;;7.70;99.90;;;;;;4932632;28;20134;-76
2021/05/08 05:21:44;;;;;;;16.63;8.00;;;7.80;99.90;;;;;;4933478;28;20091;-78
2021/05/08 05:24:11;;;;;;;11.65;8.23;;;7.80;99.90;;;;;;4926336;28;20030;-77
2021/05/08 05:26:37;;;;;;;13.15;8.25;;;7.90;99.90;;;;;;4945906;28;20051;-76
2021/05/08 05:29:10;;;;;;;15.05;8.50;;;7.90;99.90;;;;;;4934506;28;20093;-75
2021/05/08 05:31:37;;;;;;;9.48;7.50;;;7.90;99.90;;;;;;4941802;28;20020;-76
2021/05/08 05:34:03;;;;;;;13.55;7.68;;;8.00;99.90;;;;;;4935837;28;20066;-74
2021/05/08 05:36:31;;;;;;;17.48;8.93;;;8.10;99.90;;;;;;4932197;28;20035;-76
2021/05/08 05:38:57;;;;;;;12.50;8.00;;;8.10;99.90;;;;;;4922536;28;20038;-78
2021/05/08 05:41:23;;;;;;;14.98;8.10;;;8.20;99.90;;;;;;4919666;28;20170;-77
2021/05/08 05:43:49;;;;;;;14.02;7.25;;;8.30;99.90;;;;;;4929112;28;20063;-77
2021/05/08 05:46:15;;;;;;;14.20;7.57;;;8.40;99.90;;;;;;4928606;28;20032;-76
2021/05/08 05:48:41;;;;;;;9.73;6.40;;;8.50;99.90;;;;;;4932285;28;20121;-76
2021/05/08 05:51:08;;;;;;;14.45;7.82;;;8.60;99.90;;;;;;4935137;28;20028;-77
2021/05/08 05:53:39;;;;;;;9.80;6.38;;;8.60;99.90;;;;;;4931224;28;20020;-76
2021/05/08 05:56:05;;;;;;;9.50;6.97;;;8.70;99.90;;;;;;4944727;28;20028;-76
2021/05/08 05:58:31;;;;;;;16.48;6.55;;;8.80;99.90;;;;;;4927747;28;20313;-76
2021/05/08 06:00:57;;;;;;;12.68;6.95;;;8.90;99.90;;;;;;4938274;28;20439;-78
2021/05/08 06:03:24;;;;;;;9.88;6.93;;;8.90;99.90;;;;;;4922118;28;20051;-78
2021/05/08 06:05:52;;;;;;;13.10;7.10;;;8.90;99.90;;;;;;4926703;28;20020;-79
2021/05/08 06:08:18;;;;;;;10.50;6.53;;;9.00;99.90;;;;;;4947088;28;20043;-77
2021/05/08 06:10:44;;;;;;;13.25;6.97;;;8.90;99.90;;;;;;4937053;28;20043;-76
2021/05/08 06:13:10;;;;;;;19.92;7.38;;;8.90;99.90;;;;;;4938783;28;20011;-75
2021/05/08 06:15:37;;;;;;;14.23;6.80;;;8.80;99.90;;;;;;4932818;28;20042;-77
2021/05/08 06:18:03;;;;;;;11.02;6.95;;;8.80;99.90;;;;;;4945371;28;20062;-77
2021/05/08 06:20:29;;;;;;;10.05;6.25;;;8.80;99.90;;;;;;4934394;28;20032;-81
2021/05/08 06:22:57;;;;;;;11.95;6.97;;;8.70;99.90;;;;;;4951989;28;20055;-78
2021/05/08 06:25:23;;;;;;;12.32;6.53;;;8.70;99.90;;;;;;4963027;28;20144;-76
2021/05/08 06:27:50;;;;;;;14.55;7.20;;;8.70;99.90;;;;;;4947032;28;20032;-76
2021/05/08 06:30:16;;;;;;;10.73;6.88;;;8.70;99.90;;;;;;4938046;28;20034;-77
2021/05/08 06:32:42;;;;;;;16.73;7.00;;;8.70;99.90;;;;;;4927851;28;20079;-77
2021/05/08 06:35:08;;;;;;;8.75;6.32;;;8.70;99.90;;;;;;4930755;28;20053;-77
2021/05/08 06:37:34;;;;;;;11.48;6.93;;;8.70;99.90;;;;;;4929803;28;20024;-76
2021/05/08 06:40:00;;;;;;;11.82;7.68;;;8.80;99.90;;;;;;4935608;28;20043;-76
2021/05/08 06:42:31;;;;;;;11.55;7.00;;;8.90;99.90;;;;;;4946789;28;20074;-75
2021/05/08 06:44:58;;;;;;;10.53;7.27;;;8.90;99.90;;;;;;4951829;28;20019;-79
2021/05/08 06:47:23;;;;;;;12.32;6.88;;;8.90;99.90;;;;;;4934602;28;20030;-75
2021/05/08 06:49:55;;;;;;;12.65;7.47;;;8.90;99.90;;;;;;4928825;28;20020;-78
2021/05/08 06:52:22;;;;;;;13.30;7.20;;;8.90;99.90;;;;;;4926419;28;20539;-77
2021/05/08 06:54:47;;;;;;;15.82;7.32;;;9.00;99.90;;;;;;4931780;28;20040;-78
2021/05/08 06:57:14;;;;;;;13.13;6.95;;;9.00;99.90;;;;;;4933101;28;20023;-79
2021/05/08 06:59:39;;;;;;;12.20;6.07;;;9.10;99.90;;;;;;4932476;28;20107;-77
2021/05/08 07:02:06;;;;;;;14.65;8.00;;;9.20;99.90;;;;;;4936023;28;20115;-77
2021/05/08 07:04:33;;;;;;;14.32;7.38;;;9.20;99.90;;;;;;4940632;28;20095;-76
2021/05/08 07:06:58;;;;;;;11.98;7.03;;;9.30;99.90;;;;;;4934919;28;20028;-77
2021/05/08 07:09:24;;;;;;;10.32;6.28;;;9.30;99.90;;;;;;4927295;28;20071;-76
2021/05/08 07:11:50;;;;;;;14.10;7.35;;;9.40;99.90;;;;;;4927132;28;20032;-76
2021/05/08 07:14:15;;;;;;;15.88;7.63;;;9.40;99.90;;;;;;4966834;28;20040;-78
2021/05/08 07:16:41;;;;;;;11.25;6.80;;;9.40;99.90;;;;;;4945662;28;20571;-77
2021/05/08 07:19:07;;;;;;;17.67;7.32;;;9.50;99.90;;;;;;4930904;28;20040;-77
2021/05/08 07:21:33;;;;;;;11.65;6.97;;;9.50;99.90;;;;;;4926639;28;20087;-80
2021/05/08 07:23:58;;;;;;;11.35;6.95;;;9.60;99.90;;;;;;4935543;28;20036;-78
2021/05/08 07:26:25;;;;;;;14.90;6.30;;;9.60;99.90;;;;;;4913492;28;20028;-76
2021/05/08 07:28:52;;;;;;;12.82;6.53;;;9.70;99.90;;;;;;4939345;28;20054;-78
2021/05/08 07:31:17;;;;;;;10.45;6.45;;;9.90;99.90;;;;;;4927686;28;20036;-78
2021/05/08 07:33:43;;;;;;;15.75;6.90;;;10.00;99.90;;;;;;4925974;28;20032;-78
2021/05/08 07:36:09;;;;;;;14.25;7.30;;;10.00;99.90;;;;;;4925972;28;20035;-75
2021/05/08 07:38:35;;;;;;;14.40;7.72;;;10.10;99.90;;;;;;4918728;28;20040;-75
2021/05/08 07:41:01;;;;;;;13.85;6.80;;;10.30;99.90;;;;;;4923633;28;20031;-76
2021/05/08 07:43:26;;;;;;;21.48;7.53;;;10.30;99.90;;;;;;4944217;28;20548;-77
2021/05/08 07:45:53;;;;;;;11.07;6.45;;;10.30;99.90;;;;;;4931598;28;20048;-76
2021/05/08 07:48:19;;;;;;;10.60;6.47;;;10.30;99.90;;;;;;4947062;28;20705;-75
2021/05/08 07:50:46;;;;;;;11.32;6.22;;;10.30;99.90;;;;;;4956503;28;20040;-79
2021/05/08 07:53:13;;;;;;;15.00;6.75;;;10.40;99.90;;;;;;4935945;28;20035;-75
2021/05/08 07:55:39;;;;;;;18.25;6.78;;;10.50;99.90;;;;;;4927648;28;20039;-77
2021/05/08 07:58:05;;;;;;;18.00;6.07;;;10.40;99.90;;;;;;4928758;28;20040;-75
2021/05/08 08:00:33;;;;;;;12.27;5.55;;;10.40;99.90;;;;;;4940922;28;20059;-78
2021/05/08 08:02:59;;;;;;;12.98;6.38;;;10.60;99.90;;;;;;4954913;28;20737;-76
2021/05/08 08:05:25;;;;;;;11.52;5.97;;;10.60;99.90;;;;;;4945802;28;20028;-78
2021/05/08 08:07:50;;;;;;;15.63;6.53;;;10.80;99.90;;;;;;4932323;28;20035;-79
2021/05/08 08:10:17;;;;;;;11.35;5.93;;;10.70;99.90;;;;;;4932643;28;20028;-79
2021/05/08 08:12:43;;;;;;;12.50;5.88;;;10.80;99.90;;;;;;4934087;28;20032;-78
2021/05/08 08:15:10;;;;;;;15.20;5.85;;;11.00;99.90;;;;;;4936276;28;20043;-76
2021/05/08 08:17:37;;;;;;;13.98;6.20;;;11.10;99.90;;;;;;4927879;28;20025;-78
2021/05/08 08:20:05;;;;;;;12.98;5.07;;;11.20;99.90;;;;;;4943965;28;20106;-76
2021/05/08 08:22:31;;;;;;;8.07;5.03;;;11.40;99.90;;;;;;4936197;28;20052;-79
2021/05/08 08:24:58;;;;;;;12.40;5.32;;;11.50;99.90;;;;;;4937275;28;20070;-76
2021/05/08 08:27:25;;;;;;;15.85;6.05;;;11.60;99.90;;;;;;4934258;28;20031;-76
2021/05/08 08:29:52;;;;;;;17.33;5.50;;;11.70;99.90;;;;;;4928887;28;20123;-81
2021/05/08 08:32:22;;;;;;;7.38;4.47;;;11.80;99.90;;;;;;4927889;28;20039;-78
2021/05/08 08:34:49;;;;;;;11.85;4.68;;;11.70;99.90;;;;;;4917061;28;20036;-78
2021/05/08 08:37:15;;;;;;;13.30;5.43;;;11.60;99.90;;;;;;4930724;28;20040;-79
2021/05/08 08:39:41;;;;;;;8.43;4.65;;;11.70;99.90;;;;;;4933801;28;20515;-79
2021/05/08 08:42:09;;;;;;;10.10;5.30;;;11.80;99.90;;;;;;4951392;28;20028;-76
2021/05/08 08:44:36;;;;;;;8.15;4.82;;;11.90;99.90;;;;;;4929140;28;20016;-77
2021/05/08 08:47:28;;;;;;;11.23;4.68;;;11.90;99.90;;;;;;4933483;28;20422;-78
2021/05/08 08:49:55;;;;;;;8.85;4.55;;;12.00;99.90;;;;;;4942529;28;20086;-79
2021/05/08 08:52:20;;;;;;;8.27;4.63;;;12.00;99.90;;;;;;4928281;28;20512;-79
2021/05/08 08:54:46;;;;;;;7.15;4.15;;;12.00;99.90;;;;;;4938816;28;20040;-78
2021/05/08 08:57:13;;;;;;;8.13;4.90;;;12.10;99.90;;;;;;4954485;28;20055;-78
2021/05/08 08:59:39;;;;;;;11.50;5.45;;;12.20;99.90;;;;;;4928157;28;20023;-78
2021/05/08 09:02:05;;;;;;;10.15;4.15;;;12.10;99.90;;;;;;4927865;28;20437;-77
2021/05/08 09:04:30;;;;;;;11.75;3.97;;;12.10;99.90;;;;;;4922348;28;20016;-77
2021/05/08 09:06:57;;;;;;;5.90;3.42;;;12.20;99.90;;;;;;4924469;28;20024;-77
2021/05/08 09:09:24;;;;;;;5.95;3.45;;;12.20;99.90;;;;;;4927987;29;20035;-78
2021/05/08 09:11:54;;;;;;;8.10;3.47;;;12.20;99.90;;;;;;4935909;28;20027;-79
2021/05/08 09:14:23;;;;;;;6.55;3.70;;;12.20;99.90;;;;;;4934012;28;20123;-76
2021/05/08 09:17:18;;;;;;;8.80;3.70;;;12.10;99.90;;;;;;4941947;28;20070;-77
2021/05/08 09:19:59;;;;;;;5.47;3.38;;;12.00;99.90;;;;;;4963511;28;20056;-81
2021/05/08 09:22:42;;;;;;;9.82;3.67;;;11.90;99.90;;;;;;4944339;28;20020;-80
2021/05/08 09:25:16;;;;;;;8.20;3.85;;;11.80;99.90;;;;;;4949580;28;20019;-79
2021/05/08 09:27:53;;;;;;;7.50;3.38;;;11.80;99.90;;;;;;4953290;28;20578;-79
2021/05/08 09:30:30;;;;;;;9.38;3.88;;;11.80;99.90;;;;;;4952436;28;20032;-78
2021/05/08 09:32:56;;;;;;;7.68;4.28;;;11.80;99.90;;;;;;4957133;28;20035;-77
2021/05/08 09:35:29;;;;;;;8.10;3.88;;;11.80;99.90;;;;;;4955857;28;20047;-76
2021/05/08 09:38:19;;;;;;;7.75;3.80;;;11.80;99.90;;;;;;4947298;28;20119;-80
2021/05/08 09:40:46;;;;;;;6.65;4.18;;;11.60;99.90;;;;;;4948488;28;20031;-78
2021/05/08 09:43:16;;;;;;;7.43;3.85;;;11.60;99.90;;;;;;4949339;28;20091;-79
2021/05/08 09:45:48;;;;;;;6.35;4.32;;;11.70;99.90;;;;;;4939919;28;20032;-77
2021/05/08 09:48:27;;;;;;;14.05;4.28;;;11.60;99.90;;;;;;4918493;28;20091;-77
2021/05/08 09:51:12;;;;;;;11.48;4.15;;;11.70;99.90;;;;;;4919396;29;20024;-79
2021/05/08 09:53:38;;;;;;;6.13;3.97;;;11.70;99.90;;;;;;4933704;28;20036;-74
2021/05/08 09:56:03;;;;;;;11.95;4.85;;;11.60;99.90;;;;;;4930201;28;20086;-78
2021/05/08 09:58:29;;;;;;;13.55;4.20;;;11.40;99.90;;;;;;4932569;28;20030;-78
2021/05/08 10:00:55;;;;;;;7.78;4.30;;;11.30;99.90;;;;;;4931885;28;20419;-76
2021/05/08 10:03:22;;;;;;;7.63;5.25;;;11.30;99.90;;;;;;4924988;28;20524;-77
2021/05/08 10:06:07;;;;;;;9.73;4.63;;;11.30;99.90;;;;;;4923328;28;20080;-75
2021/05/08 10:08:33;;;;;;;7.88;5.18;;;11.20;99.90;;;;;;4921396;28;20032;-77
2021/05/08 10:11:04;;;;;;;9.10;4.80;;;11.20;99.90;;;;;;4928658;28;20180;-77
2021/05/08 10:13:32;;;;;;;7.83;5.17;;;11.30;99.90;;;;;;4924621;28;20560;-76
2021/05/08 10:16:03;;;;;;;11.02;4.95;;;11.20;99.90;;;;;;4922082;28;20290;-75
2021/05/08 10:18:33;;;;;;;6.97;4.90;;;11.10;99.90;;;;;;4937808;28;20040;-76
2021/05/08 10:20:59;;;;;;;7.65;5.10;;;11.10;99.90;;;;;;4938829;28;20027;-75
2021/05/08 10:23:30;;;;;;;10.23;4.47;;;11.00;99.90;;;;;;4940288;28;20504;-76
2021/05/08 10:25:56;;;;;;;6.43;4.43;;;11.00;99.90;;;;;;4977947;28;20107;-76
2021/05/08 10:28:23;;;;;;;8.18;4.32;;;11.00;99.90;;;;;;4956416;28;20035;-75
2021/05/08 10:30:51;;;;;;;7.63;4.30;;;11.00;99.90;;;;;;4938548;28;20031;-75
2021/05/08 10:33:21;;;;;;;8.27;4.45;;;11.00;99.90;;;;;;4939575;28;20038;-75
2021/05/08 10:35:51;;;;;;;6.40;4.80;;;11.10;99.90;;;;;;4936867;28;20033;-77
2021/05/08 10:38:23;;;;;;;7.55;4.20;;;11.00;99.90;;;;;;4925732;28;20032;-78
2021/05/08 10:40:55;;;;;;;9.52;5.05;;;11.00;99.90;;;;;;4929842;28;20030;-76
2021/05/08 10:43:51;;;;;;;8.82;4.50;;;11.00;99.90;;;;;;4931192;28;20028;-73
2021/05/08 10:46:20;;;;;;;6.95;4.50;;;11.00;99.90;;;;;;4919590;28;20036;-75
2021/05/08 10:49:09;;;;;;;7.65;4.32;;;10.90;99.90;;;;;;4935045;28;20102;-75
2021/05/08 10:51:56;;;;;;;8.40;5.32;;;10.80;99.90;;;;;;4932786;28;20521;-77
2021/05/08 10:54:43;;;;;;;6.35;5.10;;;10.70;99.90;;;;;;4932801;28;20107;-75
2021/05/08 10:57:18;;;;;;;8.50;5.07;;;10.60;99.90;;;;;;4939495;29;20027;-76
2021/05/08 11:00:03;;;;;;;7.00;5.10;;;10.70;99.90;;;;;;4934331;29;20028;-77
2021/05/08 11:02:43;;;;;;;8.45;5.28;;;10.70;99.90;;;;;;4924724;28;20031;-74
2021/05/08 11:05:26;;;;;;;6.72;4.97;;;10.70;99.90;;;;;;4937251;28;20042;-75
2021/05/08 11:07:52;;;;;;;8.82;5.45;;;10.70;99.90;;;;;;4941668;28;20027;-73
2021/05/08 11:10:35;;;;;;;8.05;5.38;;;10.70;99.90;;;;;;4928047;28;20032;-74
2021/05/08 11:13:15;;;;;;;9.98;5.85;;;10.60;99.90;;;;;;4933956;28;20051;-72
2021/05/08 11:18:35;;;;;;;7.53;6.47;;;10.50;99.90;;;;;;4923938;29;20639;-74
2021/05/08 11:21:27;;;;;;;9.57;7.40;;;10.50;99.90;;;;;;4964103;28;20020;-75
2021/05/08 11:23:57;;;;;;;9.40;7.13;;;10.50;99.90;;;;;;4941724;28;20515;-76
2021/05/08 11:26:39;;;;;;;11.90;9.63;;;10.50;99.90;;;;;;4943677;28;20011;-77
2021/05/08 11:29:07;;;;;;;10.55;9.55;;;10.40;99.90;;;;;;4959186;28;20028;-77
2021/05/08 11:31:34;;;;;;;12.52;10.98;;;10.30;99.90;;;;;;4930785;28;20399;-74
2021/05/08 11:34:06;;;;;;;14.55;13.00;;;10.20;99.90;;;;;;4926796;28;20040;-78
2021/05/08 11:36:40;;;;;;;;;;;10.20;99.90;;;;;;4918906;28;20619;-76
2021/05/08 11:39:10;;;;;;;16.05;14.57;;;10.30;99.90;;;;;;4935812;28;19914;-75
2021/05/08 11:41:36;;;;;;;14.70;13.43;;;10.20;99.90;;;;;;4930545;28;20130;-72
2021/05/08 11:44:02;;;;;;;17.48;15.65;;;10.20;99.90;;;;;;4946958;28;20034;-80
2021/05/08 11:46:29;;;;;;;19.77;14.65;;;10.20;99.90;;;;;;4925993;28;20154;-74
2021/05/08 11:48:56;;;;;;;17.80;16.20;;;10.20;99.90;;;;;;4923787;28;20032;-74
2021/05/08 11:51:23;;;;;;;16.15;14.80;;;10.20;99.90;;;;;;4934246;28;20475;-72
2021/05/08 11:54:05;;;;;;;17.25;15.57;;;10.20;99.90;;;;;;4930698;28;20564;-77
2021/05/08 11:56:31;;;;;;;;;;;10.20;99.90;;;;;;4936369;28;20331;-79
2021/05/08 11:58:57;;;;;;;17.65;16.17;;;10.20;99.90;;;;;;4917630;28;20014;-77
2021/05/08 12:01:23;;;;;;;19.38;17.77;;;10.20;99.90;;;;;;4934227;28;20111;-75
2021/05/08 12:03:59;;;;;;;19.50;17.58;;;10.30;99.90;;;;;;4936802;28;20358;-76
2021/05/08 12:06:34;;;;;;;19.00;17.17;;;10.30;99.90;;;;;;4934230;28;20027;-74
2021/05/08 12:09:11;;;;;;;19.42;17.55;;;10.40;99.90;;;;;;4944503;28;20028;-76
2021/05/08 12:11:38;;;;;;;20.48;18.05;;;10.40;99.90;;;;;;4935422;28;20419;-72
2021/05/08 12:14:14;;;;;;;18.73;16.80;;;10.40;99.90;;;;;;4921535;28;20031;-74
2021/05/08 12:16:46;;;;;;;20.35;18.40;;;10.30;99.90;;;;;;4944789;28;20031;-74
2021/05/08 12:19:13;;;;;;;18.60;16.98;;;10.40;99.90;;;;;;4941975;28;20032;-75
2021/05/08 12:21:38;;;;;;;12.43;11.13;;;10.40;99.90;;;;;;4922618;28;20028;-73
2021/05/08 12:24:05;;;;;;;11.88;9.32;;;10.30;99.90;;;;;;4958682;28;20087;-75
2021/05/08 12:26:30;;;;;;;13.30;9.30;;;10.30;99.90;;;;;;4946574;28;20095;-76
2021/05/08 12:28:57;;;;;;;11.75;9.07;;;10.40;99.90;;;;;;4932792;28;20047;-75
2021/05/08 12:31:28;;;;;;;16.98;10.38;;;10.30;99.90;;;;;;4936764;28;20031;-73
2021/05/08 12:33:57;;;;;;;15.23;12.02;;;10.30;99.90;;;;;;4932531;28;20027;-73
2021/05/08 12:36:32;;;;;;;16.90;15.18;;;10.30;99.90;;;;;;4944847;28;20038;-74
2021/05/08 12:39:20;;;;;;;15.35;13.73;;;10.40;99.90;;;;;;4934678;28;20102;-77
2021/05/08 12:42:01;;;;;;;15.70;14.00;;;10.30;99.90;;;;;;4948367;28;20012;-74
2021/05/08 12:44:39;;;;;;;16.50;14.38;;;10.40;99.90;;;;;;4940005;28;20070;-75
2021/05/08 12:50:03;;;;;;;15.57;14.30;;;10.50;99.90;;;;;;4946966;28;20036;-78
2021/05/08 12:52:30;;;;;;;15.90;14.60;;;10.50;99.90;;;;;;4933465;28;20030;-75
2021/05/08 12:54:56;;;;;;;17.58;15.98;;;10.50;99.90;;;;;;4932491;28;20028;-74